Date,TemperatureHighF,TemperatureAvgF,TemperatureLowF,DewpointHighF,DewpointAvgF,DewpointLowF,HumidityHigh,HumidityAvg,HumidityLow,PressureMaxIn,PressureMinIn,WindSpeedMaxMPH,WindSpeedAvgMPH,GustSpeedMaxMPH,PrecipitationSumIn
2019-1-1,57.9,47.8,37.6,42.3,32.1,24.0,67,57,52,30.44,30.30,7,1,3,0.00
2019-1-2,50.4,42.8,35.2,34.5,28.2,24.0,66,61,53,30.33,30.24,10,3,5,0.00
2019-1-3,52.9,42.7,32.7,36.5,27.0,22.4,69,60,52,30.44,30.30,6,2,6,0.00
2019-1-4,50.9,41.1,31.3,34.8,27.5,20.5,72,61,54,30.48,30.33,6,1,6,0.00
2019-1-5,48.7,41.0,33.3,32.0,28.0,23.5,77,63,50,30.44,30.27,8,2,8,0.00
2019-1-6,56.1,46.3,36.5,34.3,25.6,20.7,55,48,38,30.36,30.24,7,2,7,0.00
2019-1-7,54.7,45.7,36.7,33.6,23.9,20.1,52,47,42,30.39,30.24,7,2,4,0.00
2019-1-8,47.7,39.8,32.0,31.0,25.6,20.0,64,57,52,30.39,30.09,8,3,7,0.00
2019-1-9,59.0,47.7,36.3,41.2,32.1,26.0,68,60,47,30.09,29.83,13,3,13,0.00
2019-1-10,52.7,42.3,32.0,27.9,19.9,10.7,62,44,28,30.06,29.91,18,3,19,0.00
2019-1-11,48.7,38.8,29.1,25.9,15.3,8.8,46,41,37,30.24,30.03,7,2,7,0.00
2019-1-12,52.5,42.0,31.6,33.2,22.5,12.9,56,50,43,30.30,30.21,12,2,12,0.00
2019-1-13,55.9,45.3,34.9,39.2,30.0,22.8,66,59,52,30.24,30.03,10,3,10,0.00
2019-1-14,58.6,51.0,43.5,42.5,35.9,32.3,67,61,53,30.12,29.97,13,3,13,0.00
2019-1-15,53.8,45.9,38.1,40.0,35.3,30.6,76,67,59,30.18,30.09,8,2,9,0.00
2019-1-16,48.0,41.9,35.8,39.8,32.0,30.2,80,79,73,30.09,29.97,4,0,4,0.00
2019-1-17,55.4,47.7,39.9,42.6,36.6,32.8,81,72,59,30.03,29.97,10,2,10,0.00
2019-1-18,47.5,42.5,37.4,37.4,32.7,28.5,82,70,64,30.09,29.94,6,2,6,0.08
2019-1-19,52.7,42.8,32.9,39.3,31.0,26.0,78,68,55,30.00,29.80,5,1,5,0.00
2019-1-20,46.9,42.4,37.9,42.7,36.3,30.1,87,82,69,29.91,29.68,9,2,9,0.43
2019-1-21,52.2,43.3,34.5,42.1,33.9,28.4,87,76,60,30.00,29.91,8,1,9,0.00
2019-1-22,45.1,37.8,30.7,31.9,28.2,23.4,78,67,56,29.97,29.62,8,2,9,0.00
2019-1-23,52.3,44.4,36.5,39.1,30.9,24.5,76,63,51,29.65,29.32,14,4,14,0.00
2019-1-24,54.9,45.8,36.7,24.8,16.2,4.4,59,35,24,29.74,29.44,18,5,19,0.00
2019-1-25,64.0,47.8,31.6,38.6,19.8,2.3,63,39,23,29.88,29.74,12,2,12,0.00
2019-1-26,62.1,51.5,41.0,44.4,35.7,29.0,72,61,51,30.03,29.83,9,2,9,0.00
2019-1-27,58.6,48.7,38.8,40.5,32.1,24.7,76,58,38,29.83,29.62,27,6,27,0.00
2019-1-28,57.0,48.3,39.7,38.1,29.7,25.2,59,53,44,29.80,29.59,20,5,20,0.00
2019-1-29,46.8,41.5,36.3,34.6,30.4,25.3,65,62,55,29.85,29.56,10,2,4,0.00
2019-1-30,54.7,47.1,39.4,34.8,29.7,23.4,64,53,44,29.71,29.59,6,2,6,0.00
2019-1-31,61.0,51.0,41.2,44.5,35.1,24.4,64,57,49,29.59,29.29,2,1,2,0.00
2019-2-1,60.8,51.8,42.8,46.7,39.7,29.7,77,63,48,29.29,29.15,15,3,15,0.08
2019-2-2,53.8,46.8,39.7,37.3,29.6,15.2,70,56,33,29.65,29.20,23,7,23,0.08
2019-2-3,53.6,45.3,37.0,20.6,12.8,4.0,40,29,20,30.12,29.62,6,5,6,0.00
2019-2-4,54.3,43.5,32.7,26.5,14.3,1.5,45,32,23,30.30,30.09,2,0,1,0.00
2019-2-5,64.4,51.9,39.4,42.0,31.4,22.6,67,51,43,30.24,30.15,6,1,6,0.00
2019-2-6,64.4,52.3,40.5,46.7,38.7,31.8,75,66,51,30.24,30.12,7,3,7,0.00
2019-2-7,59.9,49.6,39.4,46.3,40.0,33.7,82,74,57,30.21,30.09,6,3,6,0.00
2019-2-8,63.5,50.5,37.4,47.8,39.7,33.0,88,74,52,30.21,30.06,14,3,14,0.00
2019-2-9,62.6,51.2,39.9,46.3,39.7,33.0,78,69,49,30.21,30.09,9,2,9,0.00
2019-2-10,50.0,50.0,50.0,42.4,42.4,42.4,75,75,75,30.12,29.94,16,5,16,0.00
2019-2-11,74.8,62.4,50.0,58.6,46.4,42.4,75,71,57,30.42,30.06,10,2,10,0.00
2019-2-12,74.8,57.9,41.0,58.6,48.4,23.1,57,52,36,30.50,29.47,8,2,8,0.08
2019-2-13,61.5,47.8,34.2,42.5,30.8,21.2,72,57,46,30.56,30.39,9,2,9,0.00
2019-2-14,63.3,48.8,34.3,42.4,33.6,27.9,80,65,39,30.59,30.44,10,2,10,0.00
2019-2-15,65.7,49.4,33.1,42.4,31.6,25.7,77,59,31,30.50,30.33,8,1,9,0.00
2019-2-16,66.7,50.5,34.5,38.7,30.1,20.8,64,51,31,30.44,30.33,9,2,9,0.00
2019-2-17,61.5,47.4,33.6,41.2,30.8,20.2,74,57,39,30.36,30.21,7,1,7,0.00
2019-2-18,60.1,48.2,36.5,46.1,38.5,30.3,81,72,57,30.24,30.12,10,2,10,0.00
2019-2-19,59.0,49.3,39.9,45.9,39.7,34.6,83,72,55,30.21,30.12,10,2,10,0.00
2019-2-20,57.9,50.3,42.8,44.4,39.3,34.7,77,64,55,30.30,30.18,7,2,7,0.00
2019-2-21,65.3,50.8,36.3,46.8,38.5,30.1,81,71,49,30.44,30.30,8,2,8,0.00
2019-2-22,73.9,56.9,39.9,50.0,37.9,31.6,81,58,31,30.42,30.24,9,2,9,0.00
2019-2-23,72.5,57.8,43.2,46.6,37.0,31.0,64,53,32,30.42,30.21,14,2,14,0.00
2019-2-24,66.0,52.8,39.6,41.4,36.0,31.3,76,59,34,30.53,30.39,10,2,10,0.00
2019-2-25,67.5,53.1,38.8,45.2,38.0,30.2,76,63,43,30.53,30.39,9,2,9,0.00
2019-2-26,67.8,55.0,42.1,45.6,38.6,34.0,75,59,40,30.44,30.33,10,2,10,0.00
2019-2-27,78.4,61.1,43.9,47.8,36.7,21.1,68,51,14,30.33,30.15,10,2,10,0.00
2019-2-28,73.4,58.4,43.7,46.7,38.9,30.7,68,54,33,30.30,30.18,8,2,9,0.00
2019-3-1,68.5,56.8,45.1,46.9,41.3,33.7,78,62,44,30.24,30.06,10,2,10,0.00
2019-3-2,69.1,56.8,44.6,48.0,42.0,37.5,79,66,43,30.18,30.09,12,3,12,0.00
2019-3-3,77.4,60.0,42.6,51.1,40.5,35.2,79,58,28,30.18,29.97,14,3,14,0.00
2019-3-4,73.4,59.9,46.4,44.2,38.6,32.0,64,49,30,30.06,29.88,18,4,18,0.00
2019-3-5,68.0,57.0,45.9,46.7,39.8,36.6,74,60,38,30.09,29.91,12,2,12,0.00
2019-3-6,59.2,52.6,45.9,50.7,44.3,37.5,83,75,68,29.94,29.62,8,2,8,0.04
2019-3-7,66.2,56.5,46.8,44.8,34.2,23.2,79,49,29,30.00,29.71,11,3,11,0.00
2019-3-8,68.7,53.4,38.1,40.4,31.6,22.9,62,48,32,30.33,29.97,13,3,13,0.00
2019-3-9,72.0,55.4,39.0,45.3,37.1,30.2,73,55,35,30.42,30.30,10,3,10,0.00
2019-3-10,78.1,61.6,45.3,52.4,41.4,34.0,69,57,33,30.36,30.21,17,3,17,0.00
2019-3-11,68.7,58.7,48.9,48.3,43.3,39.8,75,64,47,30.39,30.24,15,3,15,0.00
2019-3-12,65.1,55.4,45.7,47.9,44.1,38.5,78,70,51,30.39,30.09,16,4,16,0.00
2019-3-13,65.1,55.8,46.6,44.8,39.4,33.0,77,55,39,30.21,30.06,15,4,15,0.00
2019-3-14,67.6,54.0,40.5,39.8,32.1,26.8,61,46,31,30.33,30.12,13,4,13,0.00
2019-3-15,73.6,60.2,46.9,44.7,35.2,26.3,62,46,31,30.24,30.12,12,4,12,0.00
2019-3-16,76.6,59.2,41.9,48.8,40.0,33.0,76,56,33,30.24,29.97,14,3,14,0.00
2019-3-17,71.1,58.4,45.7,46.5,39.7,31.4,76,55,38,30.03,29.88,18,4,19,0.00
2019-3-18,64.4,53.2,42.3,43.3,32.1,24.8,75,49,37,30.21,30.03,4,1,4,0.00
2019-3-19,60.1,52.2,44.4,42.6,35.8,30.6,72,59,39,30.30,30.15,13,2,13,0.00
2019-3-20,62.2,50.0,37.8,40.1,33.8,28.6,78,57,36,30.39,30.24,14,3,14,0.00
2019-3-21,64.2,51.2,38.3,38.2,29.9,24.6,60,46,32,30.36,30.27,14,3,14,0.00
2019-3-22,72.5,56.7,41.0,39.5,30.4,22.9,56,42,30,30.36,30.27,15,3,15,0.00
2019-3-23,78.4,61.0,43.5,42.0,28.4,21.1,49,33,19,30.33,30.18,4,1,4,0.00
2019-3-24,77.5,61.7,45.9,40.0,28.9,19.5,40,31,22,30.24,30.09,12,3,12,0.00
2019-3-25,73.9,60.3,46.8,41.4,32.3,23.6,63,43,24,30.15,29.94,12,2,12,0.00
2019-3-26,70.3,56.8,43.3,40.2,30.5,16.1,69,43,15,30.21,30.03,22,3,22,0.00
2019-3-27,70.2,53.8,37.4,38.3,30.3,22.0,57,45,20,30.33,30.18,14,3,14,0.00
2019-3-28,68.9,54.4,40.1,40.2,31.5,24.8,64,47,27,30.39,30.27,15,2,15,0.00
2019-3-29,64.2,52.2,40.6,40.6,33.0,27.8,62,50,33,30.36,30.27,14,4,14,0.00
2019-3-30,62.2,50.2,38.3,42.5,35.2,26.7,66,56,47,30.30,30.09,14,3,14,0.00
2019-3-31,63.0,52.8,42.8,46.6,39.2,33.0,72,62,51,30.12,29.91,14,4,14,0.00
2019-4-1,68.7,58.2,47.7,43.2,36.6,30.6,61,48,31,29.97,29.88,13,3,10,0.00
2019-4-2,70.9,60.1,49.6,49.1,42.5,35.2,74,58,45,29.97,29.80,13,4,13,0.04
2019-4-3,65.7,55.4,45.5,51.4,43.9,36.4,79,68,43,29.88,29.53,13,2,13,0.12
2019-4-4,64.0,50.2,36.5,38.0,28.9,21.1,75,48,23,29.62,29.53,12,3,12,0.08
2019-4-5,63.0,50.2,37.4,47.0,36.1,25.9,82,62,50,29.62,29.44,15,2,15,0.67
2019-4-6,62.6,52.0,41.5,43.7,38.1,32.1,84,63,36,29.62,29.41,13,4,13,0.12
2019-4-7,67.1,54.2,41.4,44.4,37.2,30.7,78,63,39,29.91,29.56,20,3,20,0.32
2019-4-8,70.0,55.3,40.6,51.0,41.2,35.0,85,65,40,29.91,29.74,12,2,12,0.00
2019-4-9,67.6,56.5,45.5,46.5,41.8,35.4,79,67,44,29.83,29.74,15,3,15,0.00
2019-4-10,69.6,56.4,43.3,49.2,40.8,36.6,79,66,38,29.85,29.74,15,2,15,0.12
2019-4-11,69.6,58.8,48.0,45.5,38.2,33.2,72,42,31,29.91,29.83,13,3,13,0.00
2019-4-12,73.6,60.8,48.0,43.9,37.9,32.6,63,50,27,30.03,29.91,19,3,19,0.00
2019-4-13,75.6,60.6,45.7,47.1,39.1,32.5,75,53,26,30.06,29.91,10,3,10,0.00
2019-4-14,66.0,54.7,43.5,45.8,39.9,32.6,72,59,44,30.00,29.88,13,5,13,0.00
2019-4-15,61.5,54.0,46.6,44.8,40.2,32.8,79,60,43,30.06,29.97,6,2,6,0.00
2019-4-16,66.0,56.5,47.1,46.5,41.1,33.4,73,59,49,30.12,29.97,13,4,13,0.00
2019-4-17,64.6,56.3,48.0,49.6,46.0,41.5,81,70,55,30.15,30.03,12,4,12,0.00
2019-4-18,65.3,58.0,50.9,47.8,45.5,40.9,79,65,50,30.09,29.97,27,7,27,0.00
2019-4-19,67.6,62.3,57.0,45.4,41.2,36.1,55,48,35,30.21,30.03,28,10,28,0.00
2019-4-20,63.7,57.8,51.8,41.7,37.6,34.4,68,46,37,30.21,30.03,24,8,23,0.04
2019-4-21,64.4,58.3,52.2,43.1,41.0,39.4,64,53,42,30.06,29.71,16,3,16,0.00
2019-4-22,63.1,58.3,53.6,46.5,42.5,38.2,65,55,50,29.71,29.41,20,5,20,0.00
2019-4-23,73.2,63.5,53.8,52.8,47.6,44.0,79,63,43,29.50,29.38,10,3,12,0.00
2019-4-24,67.5,58.5,49.6,48.1,41.8,34.9,78,57,35,29.83,29.50,17,4,17,0.00
2019-4-25,68.0,60.8,53.5,53.0,48.1,37.3,79,69,53,29.94,29.80,14,4,14,0.04
2019-4-26,72.9,60.7,48.7,42.1,38.3,33.0,60,46,30,30.21,29.91,15,5,15,0.00
2019-4-27,75.0,60.0,45.0,48.3,41.6,35.0,72,55,35,30.30,30.15,13,3,13,0.00
2019-4-28,66.7,56.8,46.9,47.7,43.6,38.7,76,64,46,30.24,30.09,14,4,14,0.00
2019-4-29,67.6,60.8,54.0,50.4,47.5,45.1,78,67,52,30.15,29.97,13,3,13,0.00
2019-4-30,73.6,64.4,55.2,55.0,49.6,46.8,84,67,45,30.06,29.91,14,4,14,0.00
2019-5-1,75.6,64.3,53.2,55.1,47.8,38.1,82,62,41,30.00,29.85,16,3,16,0.00
2019-5-2,69.3,61.1,52.9,50.0,45.6,41.8,74,61,48,30.00,29.91,13,3,15,0.00
2019-5-3,56.1,51.9,47.7,49.9,46.4,43.7,87,78,66,30.00,29.83,7,1,7,0.67
2019-5-4,73.4,58.2,43.2,49.9,43.7,39.6,90,67,31,29.88,29.74,13,1,13,0.00
2019-5-5,72.0,59.5,47.1,44.4,33.2,17.6,73,43,15,30.00,29.83,14,4,14,0.00
2019-5-6,68.7,56.5,44.6,45.1,38.6,30.9,62,51,42,30.15,30.00,13,4,13,0.00
2019-5-7,64.4,54.8,45.1,53.7,44.7,34.1,80,68,54,30.15,29.97,9,2,9,0.00
2019-5-8,75.4,66.2,57.6,60.7,53.9,48.7,86,68,48,30.00,29.68,16,4,16,0.00
2019-5-9,75.9,65.3,54.9,49.3,39.8,31.5,63,39,27,29.91,29.77,15,5,15,0.00
2019-5-10,83.1,68.7,54.5,55.3,47.4,38.0,82,53,37,30.00,29.85,13,3,13,0.09
2019-5-11,72.0,63.9,55.9,58.5,53.6,49.5,83,77,55,30.12,30.00,8,2,9,0.00
2019-5-12,80.4,64.1,47.7,48.5,44.1,33.3,81,57,21,30.27,30.12,15,4,15,0.00
2019-5-13,75.0,60.5,46.2,49.9,42.8,35.4,69,54,36,30.24,30.12,15,4,15,0.00
2019-5-14,76.4,62.3,48.2,49.7,42.2,38.5,72,51,29,30.21,29.97,16,4,19,0.00
2019-5-15,69.3,61.7,54.0,46.4,42.3,36.6,69,51,39,30.03,29.91,15,4,15,0.00
2019-5-16,72.7,59.5,46.4,50.8,42.1,32.3,65,54,41,30.03,29.77,17,4,17,0.00
2019-5-17,62.1,55.6,49.1,53.7,48.4,44.0,86,76,63,29.83,29.62,10,3,8,0.78
2019-5-18,72.9,60.5,48.4,51.4,44.4,33.7,87,64,28,29.83,29.68,12,4,12,0.05
2019-5-19,67.1,56.8,46.6,47.5,43.3,37.1,78,67,48,29.83,29.74,18,3,18,0.04
2019-5-20,75.4,60.3,45.5,52.7,45.7,39.8,84,65,41,29.94,29.80,15,4,15,0.00
2019-5-21,78.3,62.9,47.5,53.0,45.3,39.4,78,57,29,30.06,29.94,14,4,14,0.00
2019-5-22,78.1,65.2,52.3,56.9,48.9,40.4,80,59,39,30.15,30.03,12,3,11,0.00
2019-5-23,83.5,67.4,51.4,53.6,48.8,41.2,80,57,32,30.15,29.97,14,2,14,0.00
2019-5-24,61.9,58.3,54.9,57.4,53.5,50.6,92,84,68,30.03,29.94,8,2,8,0.62
2019-5-25,75.4,65.0,54.9,60.9,55.2,50.8,95,77,51,30.03,29.97,5,0,5,0.08
2019-5-26,80.6,67.4,54.3,55.7,50.2,44.5,71,59,41,30.00,29.91,15,3,15,0.00
2019-5-27,81.9,67.8,53.8,54.4,49.8,44.4,77,59,33,29.97,29.80,13,4,13,0.00
2019-5-28,75.6,65.2,54.9,54.4,51.3,47.4,84,68,41,30.06,29.85,15,4,15,0.17
2019-5-29,78.1,64.9,51.8,50.2,45.1,39.8,76,53,29,30.24,30.03,14,4,14,0.00
2019-5-30,80.2,65.8,51.4,55.5,48.6,44.1,78,58,37,30.33,30.21,13,3,13,0.00
2019-5-31,82.6,67.9,53.4,53.7,46.3,39.7,79,50,28,30.30,30.15,15,4,15,0.00
2019-6-1,84.9,70.5,56.1,54.0,43.9,34.1,62,41,26,30.24,30.12,20,3,20,0.00
2019-6-2,82.4,70.2,58.1,51.8,41.0,33.4,63,36,20,30.18,29.97,20,4,20,0.00
2019-6-3,85.5,70.6,55.8,49.1,40.5,34.5,51,35,21,30.09,29.91,14,3,14,0.00
2019-6-4,85.1,70.8,56.8,56.1,46.5,40.8,67,45,24,29.97,29.74,11,3,11,0.00
2019-6-5,75.0,65.7,56.3,56.3,46.9,38.7,69,52,37,29.85,29.62,17,3,17,0.00
2019-6-6,76.6,64.4,52.3,55.2,48.2,38.5,75,58,43,29.94,29.85,18,3,17,0.00
2019-6-7,83.3,71.8,60.3,58.3,48.4,27.1,77,51,19,30.09,29.85,15,2,15,0.00
2019-6-8,78.3,66.7,55.4,50.2,43.7,33.5,64,44,30,30.21,30.09,15,3,15,0.00
2019-6-9,79.0,69.8,60.6,54.3,41.1,32.4,68,37,29,30.12,29.80,11,2,11,0.00
2019-6-10,86.2,71.8,57.7,54.6,49.0,42.5,70,50,28,29.91,29.74,13,3,13,0.00
2019-6-11,65.3,59.2,53.2,55.4,49.7,45.3,87,77,64,29.94,29.80,8,2,8,0.96
2019-6-12,74.3,61.5,48.9,57.5,48.3,32.4,92,71,42,30.00,29.47,13,2,13,0.08
2019-6-13,75.6,62.3,49.1,50.8,43.9,35.4,78,54,30,29.97,29.83,14,3,14,0.00
2019-6-14,79.3,68.9,58.6,56.0,47.4,36.1,62,50,39,29.91,29.74,18,4,17,0.00
2019-6-15,84.6,70.8,57.4,58.4,53.5,46.5,77,61,28,30.12,29.91,15,4,15,0.00
2019-6-16,84.0,67.6,51.4,59.4,52.6,32.4,81,58,36,30.18,29.47,13,3,13,0.08
2019-6-17,91.2,73.8,56.7,56.8,49.4,45.3,72,47,24,30.03,29.91,14,3,14,0.00
2019-6-18,86.5,72.8,59.0,54.8,47.3,40.4,69,44,24,29.97,29.83,13,3,13,0.00
2019-6-19,90.1,74.2,58.6,61.1,53.8,45.9,74,55,31,29.88,29.80,14,3,14,0.00
2019-6-20,83.8,73.6,63.3,62.8,58.4,53.6,82,65,46,29.94,29.83,17,5,17,0.00
2019-6-21,84.9,74.3,63.9,60.9,57.4,54.9,77,62,42,29.97,29.85,14,3,14,0.00
2019-6-22,88.2,74.8,61.5,59.1,55.0,51.9,79,55,32,29.97,29.85,17,4,17,0.00
2019-6-23,93.2,77.4,61.9,63.2,54.8,49.4,77,51,26,29.94,29.83,16,4,16,0.00
2019-6-24,88.2,75.2,62.4,57.7,52.2,40.1,71,48,20,29.97,29.85,20,6,20,0.00
2019-6-25,85.6,76.1,66.9,62.2,59.0,55.4,70,57,41,30.06,29.94,19,7,19,0.00
2019-6-26,92.8,80.5,68.2,61.9,54.6,47.3,72,44,26,30.09,30.03,17,5,17,0.00
2019-6-27,99.0,83.1,67.1,59.8,52.0,45.6,56,39,21,30.12,29.97,13,2,13,0.00
2019-6-28,105.4,87.0,68.7,58.6,49.1,41.5,50,30,13,30.00,29.83,14,3,14,0.00
2019-6-29,98.4,85.9,73.4,57.5,51.3,44.8,43,32,21,29.94,29.83,15,4,15,0.00
2019-6-30,93.9,84.8,75.7,64.2,61.1,54.0,64,44,32,30.00,29.91,13,4,13,0.00
2019-7-1,100.0,87.7,75.4,62.8,58.8,50.8,64,41,22,29.97,29.88,12,4,12,0.00
2019-7-2,94.3,81.6,69.1,63.8,60.2,55.8,70,52,30,29.97,29.83,15,3,15,0.00
2019-7-3,97.2,83.1,69.1,62.4,56.7,50.1,68,45,25,29.94,29.83,15,3,15,0.00
2019-7-4,91.0,79.6,68.2,62.6,57.3,50.1,62,46,36,29.97,29.88,13,4,10,0.00
2019-7-5,97.3,82.7,68.0,64.7,58.2,49.0,76,48,25,30.00,29.83,11,2,14,0.00
2019-7-6,99.9,84.5,69.1,69.9,62.9,55.6,74,53,34,29.91,29.74,13,2,12,0.00
2019-7-7,95.7,83.8,72.1,69.7,66.3,63.3,83,65,37,29.88,29.74,16,4,16,0.00
2019-7-8,83.5,76.4,69.3,68.6,64.8,60.8,78,71,57,29.94,29.77,17,3,17,0.33
2019-7-9,88.7,69.9,51.4,64.9,59.8,32.4,82,69,43,29.85,29.47,13,3,13,1.34
2019-7-10,93.9,81.9,70.0,64.0,57.7,41.0,70,44,30,29.97,29.80,15,3,15,1.34
2019-7-11,90.1,80.6,71.1,57.2,53.1,50.4,58,39,30,29.91,29.80,13,4,13,0.00
2019-7-12,93.7,80.5,67.3,67.9,60.6,54.1,76,53,33,29.97,29.83,13,2,13,0.00
2019-7-13,93.0,80.1,67.1,65.0,61.2,58.4,80,57,33,29.94,29.80,12,2,7,0.00
2019-7-14,85.3,76.3,67.6,63.4,59.7,55.5,77,59,41,29.85,29.71,6,0,6,0.00
2019-7-15,83.8,75.6,67.3,63.3,60.3,58.3,78,60,44,29.88,29.74,14,4,13,0.00
2019-7-16,88.3,76.6,64.8,64.3,57.4,51.0,85,55,29,29.97,29.85,9,0,10,0.00
2019-7-17,91.6,78.3,65.1,67.8,61.1,54.4,82,65,39,29.94,29.83,16,0,16,0.04
2019-7-18,90.1,76.8,63.5,67.2,61.5,57.8,86,66,44,29.94,29.83,14,2,14,0.00
2019-7-19,88.2,69.4,51.4,67.0,57.2,26.0,85,64,37,30.00,29.47,16,2,16,0.08
2019-7-20,92.3,62.2,32.0,66.2,62.6,27.1,82,52,37,30.06,29.91,15,5,15,0.00
2019-7-21,94.8,81.5,68.4,67.2,61.3,50.0,81,56,26,30.12,30.00,13,4,13,0.00
2019-7-22,99.1,83.8,68.4,62.5,57.4,49.2,64,46,21,30.15,30.00,10,3,7,0.00
2019-7-23,102.7,85.6,68.7,61.6,55.0,45.6,58,40,20,30.03,29.91,14,3,14,0.00
2019-7-24,97.7,82.6,67.6,64.7,59.5,51.3,66,50,24,29.97,29.85,14,3,14,0.00
2019-7-25,97.2,82.4,68.0,66.3,60.3,52.1,76,52,25,29.94,29.80,15,3,15,0.00
2019-7-26,98.1,83.8,70.0,62.0,58.6,53.7,73,49,26,29.87,29.65,12,2,12,0.00
2019-7-27,84.9,76.2,67.8,66.3,61.7,51.6,83,65,38,29.71,29.50,12,3,12,0.13
2019-7-28,86.2,74.5,62.8,55.7,51.3,46.6,58,46,28,29.77,29.59,15,5,15,0.00
2019-7-29,91.0,76.9,63.0,64.7,59.5,54.3,76,57,38,29.83,29.71,10,2,10,0.00
2019-7-30,92.3,81.1,70.2,67.8,63.6,60.0,80,62,36,29.94,29.80,10,2,10,0.00
2019-7-31,87.4,79.2,71.1,63.8,59.3,51.5,74,55,44,30.03,29.85,8,2,8,0.00
2019-8-1,89.6,78.3,67.1,61.7,54.7,44.2,75,50,27,29.94,29.77,14,4,14,0.00
2019-8-2,97.5,81.6,66.0,58.0,51.1,45.8,52,39,24,29.94,29.83,15,3,15,0.00
2019-8-3,94.5,80.2,66.2,60.4,54.3,50.0,63,44,25,29.94,29.83,17,3,17,0.00
2019-8-4,94.1,80.8,67.6,65.2,57.9,51.1,74,49,28,29.91,29.80,16,2,16,0.00
2019-8-5,98.1,82.8,67.6,61.0,54.4,46.9,61,41,24,29.94,29.80,10,2,10,0.00
2019-8-6,94.3,81.9,69.6,67.5,60.5,53.9,70,52,40,29.88,29.71,10,2,14,0.00
2019-8-7,88.9,81.7,74.8,70.9,68.0,66.5,81,69,50,29.83,29.68,14,3,14,0.00
2019-8-8,96.6,84.6,72.9,72.1,66.5,59.1,86,60,36,29.85,29.74,12,4,12,0.00
2019-8-9,102.6,86.6,70.5,69.9,63.1,59.2,72,51,30,29.85,29.74,14,3,14,0.00
2019-8-10,95.9,85.2,74.8,71.0,66.4,61.2,77,61,35,29.97,29.80,14,5,14,0.00
2019-8-11,75.4,72.5,69.6,66.2,65.3,63.9,83,77,71,29.94,29.88,2,0,1,0.00
2019-8-21,79.7,76.6,73.4,63.1,62.2,59.4,70,64,50,30.06,30.00,8,1,8,0.00
2019-8-22,90.0,78.9,68.2,66.5,61.9,56.6,82,60,37,30.09,30.00,14,2,14,0.00
2019-8-23,87.8,76.2,64.8,62.3,59.0,55.4,80,58,39,30.09,29.97,16,2,16,0.00
2019-8-24,94.1,80.0,66.3,63.4,57.1,52.4,70,51,28,30.06,29.97,15,2,15,0.00
2019-8-25,94.6,80.6,66.7,62.4,57.6,50.8,74,50,27,30.03,29.94,20,2,20,0.00
2019-8-26,90.5,77.2,63.8,62.5,57.3,51.3,73,54,28,30.00,29.85,16,2,16,0.00
2019-8-27,88.6,78.1,67.6,67.0,62.8,60.5,89,74,42,30.00,29.85,15,3,15,0.00
2019-8-28,89.6,77.0,64.8,68.4,63.4,59.1,92,69,43,30.00,29.91,10,2,10,0.00
2019-8-29,92.7,79.3,66.2,66.3,60.5,55.1,77,58,33,30.09,29.97,13,2,13,0.00
2019-8-30,92.5,80.1,67.6,64.8,60.0,57.2,71,54,35,30.09,29.97,13,3,13,0.00
2019-8-31,92.3,80.0,68.2,64.3,60.3,55.7,70,56,37,30.03,29.85,14,3,14,0.00
2019-9-1,88.3,77.1,65.8,65.4,60.0,54.5,72,61,43,29.94,29.83,13,3,13,0.00
2019-9-2,88.3,78.5,68.7,64.1,59.5,52.1,77,58,33,30.06,29.91,13,3,8,0.00
2019-9-3,85.5,74.7,63.9,62.2,55.6,48.3,76,54,34,30.12,30.03,17,4,17,0.00
2019-9-4,90.5,75.8,61.3,61.6,55.6,51.1,81,56,29,30.12,29.91,12,2,12,0.00
2019-9-5,80.8,74.2,67.6,61.6,59.9,51.9,81,74,45,30.03,29.91,10,1,7,0.00
2019-9-6,83.3,67.4,51.4,55.2,46.3,30.2,65,43,28,30.09,29.97,8,2,12,0.00
2019-9-7,83.5,70.9,58.3,55.3,50.5,40.7,64,48,28,30.12,29.94,11,2,11,0.08
2019-9-8,80.2,68.9,57.6,59.6,54.4,47.5,71,64,47,30.06,29.94,18,2,18,0.00
2019-9-9,82.4,72.9,63.5,62.5,57.0,53.7,74,63,47,30.03,29.80,14,2,14,0.00
2019-9-10,71.2,63.6,56.1,63.1,54.8,48.3,89,76,58,29.88,29.68,12,1,12,0.24
2019-9-11,77.5,66.8,56.1,60.8,54.5,50.2,89,66,46,30.21,29.85,17,3,17,0.23
2019-9-12,87.4,73.8,60.3,57.3,51.6,48.7,68,51,30,30.33,30.18,12,1,12,0.00
2019-9-13,80.1,69.1,58.6,54.7,51.5,39.4,68,53,41,30.39,29.97,15,1,15,0.00
2019-9-14,83.3,74.1,65.3,56.9,53.2,50.6,66,54,35,30.33,30.15,20,2,20,0.00
2019-9-15,84.7,74.3,64.0,54.7,51.2,46.4,59,46,30,30.21,30.03,15,3,15,0.00
2019-9-16,83.8,73.3,63.0,56.8,51.1,47.2,59,47,36,30.12,29.97,10,1,10,0.00
2019-9-17,86.2,73.9,61.9,59.4,52.0,47.5,62,46,34,30.00,29.83,10,1,10,0.00
2019-9-18,88.7,75.8,63.1,61.7,55.5,49.8,64,54,39,29.97,29.85,14,2,14,0.00
2019-9-19,86.7,75.0,63.3,60.2,55.4,52.0,69,57,40,30.06,29.91,13,1,13,0.00
2019-9-20,81.1,70.8,60.8,61.1,56.8,52.8,79,64,44,30.09,29.97,11,2,11,0.00
2019-9-21,72.9,69.2,65.4,64.6,61.2,58.1,83,75,69,30.00,29.80,12,2,12,0.04
2019-9-22,86.7,74.1,61.6,66.6,61.6,57.3,88,72,47,29.97,29.80,12,2,12,0.00
2019-9-23,78.6,71.2,64.2,61.0,58.0,55.2,80,67,49,30.12,29.97,15,2,15,0.00
2019-9-24,91.8,61.9,32.0,122.0,53.5,45.7,81,46,22,30.00,29.80,12,2,12,0.00
2019-9-25,82.2,73.8,65.5,59.7,56.0,53.0,71,59,43,30.00,29.85,11,1,11,0.00
2019-9-26,85.8,73.3,61.0,60.2,56.8,52.4,83,62,35,30.06,29.94,14,1,14,0.00
2019-9-27,83.8,72.9,61.9,65.9,61.3,56.7,83,71,52,30.06,29.91,11,1,11,0.00
2019-9-28,81.9,74.0,66.2,64.8,58.8,54.8,82,63,46,30.12,30.03,13,2,13,0.00
2019-9-29,86.5,73.0,59.5,65.6,60.7,55.0,87,71,46,30.06,29.88,12,2,12,0.00
2019-9-30,83.8,72.3,60.8,66.4,60.9,57.2,91,74,47,30.06,29.91,13,1,13,0.00
2019-10-1,87.3,59.7,32.0,122.0,61.1,55.8,90,71,43,29.91,29.68,13,1,13,0.00
2019-10-2,84.7,73.4,62.2,63.5,53.4,45.2,82,58,28,29.94,29.74,14,2,14,0.00
2019-10-3,82.0,68.9,55.9,52.4,47.0,42.2,67,51,29,30.00,29.85,8,1,8,0.00
2019-10-4,82.6,68.8,55.2,57.2,50.8,45.5,73,59,40,30.00,29.85,10,1,10,0.00
2019-10-5,74.8,66.1,57.4,58.7,54.9,49.5,79,69,55,30.00,29.91,14,1,14,0.00
2019-10-6,73.4,68.2,63.3,61.5,58.6,57.0,81,75,66,30.06,29.91,11,2,11,0.00
2019-10-7,81.0,69.2,57.6,58.9,48.1,40.6,83,52,28,30.06,29.85,8,1,8,0.00
2019-10-8,79.3,68.6,57.9,59.5,52.9,45.4,78,60,49,30.09,29.94,14,2,14,0.00
2019-10-9,74.7,68.3,62.1,63.5,59.1,56.0,86,79,68,30.12,29.97,18,1,18,0.00
2019-10-10,70.2,65.6,61.2,57.8,55.9,53.1,84,74,62,30.21,30.09,9,1,9,0.00
2019-10-11,76.1,68.8,61.4,62.6,57.5,52.6,83,72,60,30.24,30.09,11,2,11,0.00
2019-10-12,78.3,70.6,63.1,67.1,61.8,60.1,92,80,60,30.18,30.09,12,2,12,0.00
2019-10-13,77.2,70.5,64.0,62.8,61.0,57.7,84,75,60,30.12,30.06,13,3,13,0.00
2019-10-14,79.2,71.7,64.2,63.3,60.9,57.7,89,77,55,30.09,29.83,10,2,10,0.00
2019-10-15,70.3,62.1,54.0,61.8,44.6,37.6,92,57,37,30.06,29.85,18,3,17,0.29
2019-10-16,76.8,62.3,48.0,50.2,40.5,35.4,66,49,29,30.09,29.94,12,1,12,0.00
2019-10-17,81.0,65.5,50.0,53.9,43.7,38.1,64,50,35,30.06,29.91,8,1,9,0.00
2019-10-18,63.9,60.7,57.7,42.5,41.4,39.7,52,49,46,29.97,29.97,4,0,5,0.00